sensor_id;sensor_type;location;lat;lon;timestamp;P1;durP1;ratioP1;P2;durP2;ratioP2
9906;SDS011;4992;51.628;6.664;2022-11-15T00:00:04;17.57;;;12.83;;
9906;SDS011;4992;51.628;6.664;2022-11-15T00:02:30;15.40;;;12.27;;
9906;SDS011;4992;51.628;6.664;2022-11-15T00:04:55;17.70;;;11.97;;
9906;SDS011;4992;51.628;6.664;2022-11-15T00:07:21;16.63;;;12.00;;
9906;SDS011;4992;51.628;6.664;2022-11-15T00:09:46;16.07;;;11.93;;
9906;SDS011;4992;51.628;6.664;2022-11-15T00:12:12;14.83;;;11.43;;
9906;SDS011;4992;51.628;6.664;2022-11-15T00:14:38;17.67;;;12.23;;
9906;SDS011;4992;51.628;6.664;2022-11-15T00:17:03;16.93;;;12.30;;
9906;SDS011;4992;51.628;6.664;2022-11-15T00:19:29;15.13;;;11.67;;
9906;SDS011;4992;51.628;6.664;2022-11-15T00:21:54;14.20;;;11.40;;
9906;SDS011;4992;51.628;6.664;2022-11-15T00:24:20;15.27;;;12.03;;
9906;SDS011;4992;51.628;6.664;2022-11-15T00:26:45;17.73;;;11.13;;
9906;SDS011;4992;51.628;6.664;2022-11-15T00:29:11;17.13;;;11.43;;
9906;SDS011;4992;51.628;6.664;2022-11-15T00:31:36;19.67;;;12.23;;
9906;SDS011;4992;51.628;6.664;2022-11-15T00:34:02;15.00;;;11.87;;
9906;SDS011;4992;51.628;6.664;2022-11-15T00:36:27;14.13;;;11.30;;
9906;SDS011;4992;51.628;6.664;2022-11-15T00:38:53;15.63;;;11.30;;
9906;SDS011;4992;51.628;6.664;2022-11-15T00:41:18;16.70;;;11.70;;
9906;SDS011;4992;51.628;6.664;2022-11-15T00:43:44;15.10;;;11.50;;
9906;SDS011;4992;51.628;6.664;2022-11-15T00:46:09;16.67;;;11.53;;
9906;SDS011;4992;51.628;6.664;2022-11-15T00:48:35;15.87;;;12.10;;
9906;SDS011;4992;51.628;6.664;2022-11-15T00:51:01;16.00;;;11.37;;
9906;SDS011;4992;51.628;6.664;2022-11-15T00:53:27;15.17;;;11.47;;
9906;SDS011;4992;51.628;6.664;2022-11-15T00:55:52;15.07;;;11.90;;
9906;SDS011;4992;51.628;6.664;2022-11-15T00:58:18;13.93;;;11.53;;
9906;SDS011;4992;51.628;6.664;2022-11-15T01:00:44;11.97;;;10.20;;
9906;SDS011;4992;51.628;6.664;2022-11-15T01:03:09;14.90;;;11.50;;
9906;SDS011;4992;51.628;6.664;2022-11-15T01:05:36;12.90;;;11.00;;
9906;SDS011;4992;51.628;6.664;2022-11-15T01:08:02;12.97;;;10.77;;
9906;SDS011;4992;51.628;6.664;2022-11-15T01:10:28;14.73;;;10.43;;
9906;SDS011;4992;51.628;6.664;2022-11-15T01:12:53;13.87;;;10.17;;
9906;SDS011;4992;51.628;6.664;2022-11-15T01:15:19;13.87;;;10.47;;
9906;SDS011;4992;51.628;6.664;2022-11-15T01:17:45;17.47;;;10.30;;
9906;SDS011;4992;51.628;6.664;2022-11-15T01:20:10;11.57;;;9.63;;
9906;SDS011;4992;51.628;6.664;2022-11-15T01:22:36;10.17;;;9.10;;
9906;SDS011;4992;51.628;6.664;2022-11-15T01:25:02;11.27;;;9.30;;
9906;SDS011;4992;51.628;6.664;2022-11-15T01:27:28;13.37;;;9.33;;
9906;SDS011;4992;51.628;6.664;2022-11-15T01:29:53;11.60;;;8.90;;
9906;SDS011;4992;51.628;6.664;2022-11-15T01:32:19;13.50;;;9.37;;
9906;SDS011;4992;51.628;6.664;2022-11-15T01:34:44;11.87;;;8.83;;
9906;SDS011;4992;51.628;6.664;2022-11-15T01:37:10;14.27;;;9.30;;
9906;SDS011;4992;51.628;6.664;2022-11-15T01:39:35;11.87;;;9.13;;
9906;SDS011;4992;51.628;6.664;2022-11-15T01:42:01;11.47;;;8.87;;
9906;SDS011;4992;51.628;6.664;2022-11-15T01:52:31;12.83;;;9.37;;
9906;SDS011;4992;51.628;6.664;2022-11-15T01:57:27;10.13;;;8.87;;
9906;SDS011;4992;51.628;6.664;2022-11-15T01:59:53;15.03;;;8.90;;
9906;SDS011;4992;51.628;6.664;2022-11-15T02:02:19;11.03;;;8.53;;
9906;SDS011;4992;51.628;6.664;2022-11-15T02:04:46;11.07;;;8.67;;
9906;SDS011;4992;51.628;6.664;2022-11-15T02:07:14;9.33;;;8.30;;
9906;SDS011;4992;51.628;6.664;2022-11-15T02:09:41;9.40;;;8.00;;
9906;SDS011;4992;51.628;6.664;2022-11-15T02:12:08;10.57;;;8.20;;
9906;SDS011;4992;51.628;6.664;2022-11-15T02:14:36;9.70;;;8.40;;
9906;SDS011;4992;51.628;6.664;2022-11-15T02:28:57;11.90;;;7.90;;
9906;SDS011;4992;51.628;6.664;2022-11-15T02:31:41;13.60;;;8.47;;
9906;SDS011;4992;51.628;6.664;2022-11-15T02:34:46;9.60;;;7.73;;
9906;SDS011;4992;51.628;6.664;2022-11-15T02:40:29;11.97;;;8.27;;
9906;SDS011;4992;51.628;6.664;2022-11-15T02:43:09;8.73;;;7.90;;
9906;SDS011;4992;51.628;6.664;2022-11-15T02:46:03;9.75;;;8.07;;
9906;SDS011;4992;51.628;6.664;2022-11-15T02:48:37;9.43;;;7.40;;
9906;SDS011;4992;51.628;6.664;2022-11-15T02:51:03;10.98;;;7.85;;
9906;SDS011;4992;51.628;6.664;2022-11-15T02:53:29;8.18;;;7.38;;
9906;SDS011;4992;51.628;6.664;2022-11-15T02:55:54;10.57;;;7.65;;
9906;SDS011;4992;51.628;6.664;2022-11-15T02:59:07;8.77;;;7.73;;
9906;SDS011;4992;51.628;6.664;2022-11-15T03:07:25;8.73;;;7.25;;
9906;SDS011;4992;51.628;6.664;2022-11-15T03:10:12;8.30;;;6.90;;
9906;SDS011;4992;51.628;6.664;2022-11-15T03:12:55;8.13;;;7.32;;
9906;SDS011;4992;51.628;6.664;2022-11-15T03:15:29;8.45;;;7.13;;
9906;SDS011;4992;51.628;6.664;2022-11-15T03:18:00;8.80;;;7.57;;
9906;SDS011;4992;51.628;6.664;2022-11-15T03:20:31;10.30;;;6.68;;
9906;SDS011;4992;51.628;6.664;2022-11-15T03:23:05;8.55;;;6.40;;
9906;SDS011;4992;51.628;6.664;2022-11-15T03:25:34;8.43;;;6.93;;
9906;SDS011;4992;51.628;6.664;2022-11-15T03:28:06;8.07;;;6.78;;
9906;SDS011;4992;51.628;6.664;2022-11-15T03:30:36;7.40;;;6.45;;
9906;SDS011;4992;51.628;6.664;2022-11-15T03:33:03;7.00;;;6.30;;
9906;SDS011;4992;51.628;6.664;2022-11-15T03:35:33;8.20;;;7.20;;
9906;SDS011;4992;51.628;6.664;2022-11-15T03:40:55;7.97;;;7.15;;
9906;SDS011;4992;51.628;6.664;2022-11-15T03:46:05;8.63;;;7.30;;
9906;SDS011;4992;51.628;6.664;2022-11-15T03:48:40;7.90;;;7.07;;
9906;SDS011;4992;51.628;6.664;2022-11-15T03:51:10;9.40;;;6.95;;
9906;SDS011;4992;51.628;6.664;2022-11-15T03:53:36;7.95;;;7.03;;
9906;SDS011;4992;51.628;6.664;2022-11-15T03:56:02;11.93;;;7.50;;
9906;SDS011;4992;51.628;6.664;2022-11-15T03:58:27;7.82;;;7.00;;
9906;SDS011;4992;51.628;6.664;2022-11-15T04:00:53;11.82;;;8.20;;
9906;SDS011;4992;51.628;6.664;2022-11-15T04:03:18;12.00;;;8.23;;
9906;SDS011;4992;51.628;6.664;2022-11-15T04:05:44;10.82;;;7.97;;
9906;SDS011;4992;51.628;6.664;2022-11-15T04:08:09;10.43;;;8.35;;
9906;SDS011;4992;51.628;6.664;2022-11-15T04:10:35;11.85;;;8.20;;
9906;SDS011;4992;51.628;6.664;2022-11-15T04:13:01;13.30;;;9.73;;
9906;SDS011;4992;51.628;6.664;2022-11-15T04:15:27;11.93;;;9.65;;
9906;SDS011;4992;51.628;6.664;2022-11-15T04:17:54;9.90;;;8.90;;
9906;SDS011;4992;51.628;6.664;2022-11-15T04:20:22;13.45;;;9.43;;
9906;SDS011;4992;51.628;6.664;2022-11-15T04:23:09;11.50;;;9.18;;
9906;SDS011;4992;51.628;6.664;2022-11-15T04:25:55;14.35;;;9.10;;
9906;SDS011;4992;51.628;6.664;2022-11-15T04:28:23;11.70;;;9.77;;
9906;SDS011;4992;51.628;6.664;2022-11-15T04:30:48;10.23;;;9.20;;
9906;SDS011;4992;51.628;6.664;2022-11-15T04:33:14;11.60;;;9.60;;
9906;SDS011;4992;51.628;6.664;2022-11-15T04:35:40;15.27;;;9.63;;
9906;SDS011;4992;51.628;6.664;2022-11-15T04:38:07;11.75;;;9.85;;
9906;SDS011;4992;51.628;6.664;2022-11-15T04:40:34;12.55;;;10.63;;
9906;SDS011;4992;51.628;6.664;2022-11-15T04:43:00;10.77;;;9.40;;
9906;SDS011;4992;51.628;6.664;2022-11-15T04:45:25;13.98;;;10.65;;
9906;SDS011;4992;51.628;6.664;2022-11-15T04:47:51;14.15;;;10.50;;
9906;SDS011;4992;51.628;6.664;2022-11-15T04:50:16;14.07;;;10.50;;
9906;SDS011;4992;51.628;6.664;2022-11-15T04:52:43;11.77;;;10.63;;
9906;SDS011;4992;51.628;6.664;2022-11-15T04:55:14;12.63;;;10.60;;
9906;SDS011;4992;51.628;6.664;2022-11-15T04:57:40;11.60;;;10.07;;
9906;SDS011;4992;51.628;6.664;2022-11-15T05:00:06;13.00;;;10.65;;
9906;SDS011;4992;51.628;6.664;2022-11-15T05:02:34;11.32;;;10.13;;
9906;SDS011;4992;51.628;6.664;2022-11-15T05:05:18;12.38;;;10.85;;
9906;SDS011;4992;51.628;6.664;2022-11-15T05:07:43;13.82;;;11.07;;
9906;SDS011;4992;51.628;6.664;2022-11-15T05:10:09;14.07;;;10.60;;
9906;SDS011;4992;51.628;6.664;2022-11-15T05:12:35;11.38;;;10.27;;
9906;SDS011;4992;51.628;6.664;2022-11-15T05:15:00;14.10;;;11.45;;
9906;SDS011;4992;51.628;6.664;2022-11-15T05:17:26;13.40;;;11.57;;
9906;SDS011;4992;51.628;6.664;2022-11-15T05:19:51;13.50;;;11.00;;
9906;SDS011;4992;51.628;6.664;2022-11-15T05:22:17;16.02;;;12.05;;
9906;SDS011;4992;51.628;6.664;2022-11-15T05:24:43;14.07;;;11.73;;
9906;SDS011;4992;51.628;6.664;2022-11-15T05:27:09;14.85;;;11.68;;
9906;SDS011;4992;51.628;6.664;2022-11-15T05:29:34;16.23;;;11.60;;
9906;SDS011;4992;51.628;6.664;2022-11-15T05:32:00;14.65;;;11.90;;
9906;SDS011;4992;51.628;6.664;2022-11-15T05:34:26;16.23;;;12.18;;
9906;SDS011;4992;51.628;6.664;2022-11-15T05:36:52;12.57;;;11.25;;
9906;SDS011;4992;51.628;6.664;2022-11-15T05:39:18;18.35;;;12.10;;
9906;SDS011;4992;51.628;6.664;2022-11-15T05:41:44;13.30;;;11.90;;
9906;SDS011;4992;51.628;6.664;2022-11-15T05:44:15;12.93;;;11.45;;
9906;SDS011;4992;51.628;6.664;2022-11-15T05:46:44;14.90;;;11.50;;
9906;SDS011;4992;51.628;6.664;2022-11-15T05:49:10;16.98;;;11.55;;
9906;SDS011;4992;51.628;6.664;2022-11-15T05:51:41;13.00;;;11.70;;
9906;SDS011;4992;51.628;6.664;2022-11-15T05:54:09;13.30;;;11.05;;
9906;SDS011;4992;51.628;6.664;2022-11-15T05:56:35;14.88;;;12.43;;
9906;SDS011;4992;51.628;6.664;2022-11-15T05:59:01;14.32;;;11.32;;
9906;SDS011;4992;51.628;6.664;2022-11-15T06:01:27;12.95;;;11.40;;
9906;SDS011;4992;51.628;6.664;2022-11-15T06:03:53;14.65;;;11.20;;
9906;SDS011;4992;51.628;6.664;2022-11-15T06:06:19;12.80;;;11.10;;
9906;SDS011;4992;51.628;6.664;2022-11-15T06:08:44;13.95;;;11.40;;
9906;SDS011;4992;51.628;6.664;2022-11-15T06:11:10;13.85;;;10.32;;
9906;SDS011;4992;51.628;6.664;2022-11-15T06:13:35;13.18;;;10.00;;
9906;SDS011;4992;51.628;6.664;2022-11-15T06:16:01;11.43;;;9.30;;
9906;SDS011;4992;51.628;6.664;2022-11-15T06:18:26;12.68;;;9.07;;
9906;SDS011;4992;51.628;6.664;2022-11-15T06:20:52;11.15;;;8.93;;
9906;SDS011;4992;51.628;6.664;2022-11-15T06:23:17;12.57;;;8.63;;
9906;SDS011;4992;51.628;6.664;2022-11-15T06:25:43;10.93;;;9.20;;
9906;SDS011;4992;51.628;6.664;2022-11-15T06:28:09;10.75;;;8.63;;
9906;SDS011;4992;51.628;6.664;2022-11-15T06:30:34;12.48;;;9.00;;
9906;SDS011;4992;51.628;6.664;2022-11-15T06:33:00;10.23;;;8.07;;
9906;SDS011;4992;51.628;6.664;2022-11-15T06:35:27;11.00;;;8.70;;
9906;SDS011;4992;51.628;6.664;2022-11-15T06:37:53;13.23;;;8.45;;
9906;SDS011;4992;51.628;6.664;2022-11-15T06:40:19;13.43;;;9.50;;
9906;SDS011;4992;51.628;6.664;2022-11-15T06:42:44;9.40;;;7.75;;
9906;SDS011;4992;51.628;6.664;2022-11-15T06:45:10;11.13;;;8.00;;
9906;SDS011;4992;51.628;6.664;2022-11-15T06:47:35;10.48;;;8.00;;
9906;SDS011;4992;51.628;6.664;2022-11-15T06:50:08;11.55;;;7.68;;
9906;SDS011;4992;51.628;6.664;2022-11-15T06:52:34;10.60;;;8.40;;
9906;SDS011;4992;51.628;6.664;2022-11-15T06:54:59;9.10;;;8.00;;
9906;SDS011;4992;51.628;6.664;2022-11-15T06:57:25;9.13;;;7.53;;
9906;SDS011;4992;51.628;6.664;2022-11-15T06:59:50;10.98;;;8.02;;
9906;SDS011;4992;51.628;6.664;2022-11-15T07:02:16;8.13;;;7.22;;
9906;SDS011;4992;51.628;6.664;2022-11-15T07:04:41;20.25;;;17.13;;
9906;SDS011;4992;51.628;6.664;2022-11-15T07:07:07;9.18;;;7.88;;
9906;SDS011;4992;51.628;6.664;2022-11-15T07:09:32;9.85;;;8.15;;
9906;SDS011;4992;51.628;6.664;2022-11-15T07:11:58;9.70;;;7.10;;
9906;SDS011;4992;51.628;6.664;2022-11-15T07:14:23;8.65;;;7.28;;
9906;SDS011;4992;51.628;6.664;2022-11-15T07:16:49;8.80;;;6.75;;
9906;SDS011;4992;51.628;6.664;2022-11-15T07:19:14;9.13;;;6.57;;
9906;SDS011;4992;51.628;6.664;2022-11-15T07:21:40;8.77;;;7.90;;
9906;SDS011;4992;51.628;6.664;2022-11-15T07:24:05;7.43;;;6.68;;
9906;SDS011;4992;51.628;6.664;2022-11-15T07:26:31;8.88;;;6.82;;
9906;SDS011;4992;51.628;6.664;2022-11-15T07:28:57;9.30;;;6.55;;
9906;SDS011;4992;51.628;6.664;2022-11-15T07:31:22;7.32;;;6.25;;
9906;SDS011;4992;51.628;6.664;2022-11-15T07:33:48;7.20;;;6.45;;
9906;SDS011;4992;51.628;6.664;2022-11-15T07:36:13;8.10;;;6.00;;
9906;SDS011;4992;51.628;6.664;2022-11-15T07:38:39;8.75;;;6.05;;
9906;SDS011;4992;51.628;6.664;2022-11-15T07:41:04;8.60;;;6.70;;
9906;SDS011;4992;51.628;6.664;2022-11-15T07:43:30;8.43;;;5.80;;
9906;SDS011;4992;51.628;6.664;2022-11-15T07:45:58;7.80;;;5.57;;
9906;SDS011;4992;51.628;6.664;2022-11-15T07:48:28;9.35;;;6.63;;
9906;SDS011;4992;51.628;6.664;2022-11-15T07:50:55;7.57;;;6.05;;
9906;SDS011;4992;51.628;6.664;2022-11-15T07:53:20;4.57;;;4.18;;
9906;SDS011;4992;51.628;6.664;2022-11-15T07:55:46;4.38;;;3.97;;
9906;SDS011;4992;51.628;6.664;2022-11-15T07:58:11;4.80;;;3.97;;
9906;SDS011;4992;51.628;6.664;2022-11-15T08:00:37;7.07;;;3.58;;
9906;SDS011;4992;51.628;6.664;2022-11-15T08:03:06;2.88;;;2.58;;
9906;SDS011;4992;51.628;6.664;2022-11-15T08:05:35;3.17;;;2.88;;
9906;SDS011;4992;51.628;6.664;2022-11-15T08:08:01;3.78;;;2.92;;
9906;SDS011;4992;51.628;6.664;2022-11-15T08:10:27;4.18;;;3.22;;
9906;SDS011;4992;51.628;6.664;2022-11-15T08:13:12;2.67;;;2.47;;
9906;SDS011;4992;51.628;6.664;2022-11-15T08:15:38;4.22;;;2.00;;
9906;SDS011;4992;51.628;6.664;2022-11-15T08:18:04;1.77;;;1.67;;
9906;SDS011;4992;51.628;6.664;2022-11-15T08:20:31;2.25;;;2.05;;
9906;SDS011;4992;51.628;6.664;2022-11-15T08:22:57;2.63;;;1.73;;
9906;SDS011;4992;51.628;6.664;2022-11-15T08:25:25;2.15;;;2.05;;
9906;SDS011;4992;51.628;6.664;2022-11-15T08:27:52;2.22;;;1.90;;
9906;SDS011;4992;51.628;6.664;2022-11-15T08:30:18;2.63;;;1.83;;
9906;SDS011;4992;51.628;6.664;2022-11-15T08:32:44;3.15;;;1.60;;
9906;SDS011;4992;51.628;6.664;2022-11-15T08:35:10;2.38;;;1.50;;
9906;SDS011;4992;51.628;6.664;2022-11-15T08:37:35;3.17;;;1.58;;
9906;SDS011;4992;51.628;6.664;2022-11-15T08:40:01;2.10;;;1.63;;
9906;SDS011;4992;51.628;6.664;2022-11-15T08:42:27;2.53;;;1.55;;
9906;SDS011;4992;51.628;6.664;2022-11-15T08:44:52;3.42;;;1.38;;
9906;SDS011;4992;51.628;6.664;2022-11-15T08:47:18;3.03;;;1.40;;
9906;SDS011;4992;51.628;6.664;2022-11-15T08:49:43;3.60;;;1.70;;
9906;SDS011;4992;51.628;6.664;2022-11-15T08:52:09;1.95;;;1.45;;
9906;SDS011;4992;51.628;6.664;2022-11-15T08:54:34;2.00;;;1.80;;
9906;SDS011;4992;51.628;6.664;2022-11-15T08:57:00;1.77;;;1.20;;
9906;SDS011;4992;51.628;6.664;2022-11-15T08:59:25;1.35;;;1.10;;
9906;SDS011;4992;51.628;6.664;2022-11-15T09:01:51;2.00;;;0.85;;
9906;SDS011;4992;51.628;6.664;2022-11-15T09:04:16;1.52;;;0.98;;
9906;SDS011;4992;51.628;6.664;2022-11-15T09:09:14;4.85;;;1.25;;
9906;SDS011;4992;51.628;6.664;2022-11-15T09:11:40;2.33;;;1.13;;
9906;SDS011;4992;51.628;6.664;2022-11-15T09:14:05;3.80;;;1.25;;
9906;SDS011;4992;51.628;6.664;2022-11-15T09:16:31;1.25;;;1.00;;
9906;SDS011;4992;51.628;6.664;2022-11-15T09:18:56;1.85;;;1.27;;
9906;SDS011;4992;51.628;6.664;2022-11-15T09:21:22;1.17;;;1.02;;
9906;SDS011;4992;51.628;6.664;2022-11-15T09:23:49;3.05;;;1.05;;
9906;SDS011;4992;51.628;6.664;2022-11-15T09:26:16;4.28;;;0.88;;
9906;SDS011;4992;51.628;6.664;2022-11-15T09:28:42;2.08;;;1.00;;
9906;SDS011;4992;51.628;6.664;2022-11-15T09:31:08;2.80;;;1.50;;
9906;SDS011;4992;51.628;6.664;2022-11-15T09:33:34;10.23;;;7.82;;
9906;SDS011;4992;51.628;6.664;2022-11-15T09:36:00;2.47;;;1.70;;
9906;SDS011;4992;51.628;6.664;2022-11-15T09:38:28;3.10;;;1.52;;
9906;SDS011;4992;51.628;6.664;2022-11-15T09:40:57;1.88;;;1.40;;
9906;SDS011;4992;51.628;6.664;2022-11-15T09:43:40;3.28;;;1.60;;
9906;SDS011;4992;51.628;6.664;2022-11-15T09:49:08;2.20;;;1.50;;
9906;SDS011;4992;51.628;6.664;2022-11-15T09:51:39;2.85;;;2.38;;
9906;SDS011;4992;51.628;6.664;2022-11-15T09:54:23;4.88;;;2.22;;
9906;SDS011;4992;51.628;6.664;2022-11-15T09:56:53;3.42;;;2.25;;
9906;SDS011;4992;51.628;6.664;2022-11-15T09:59:38;1.65;;;1.55;;
9906;SDS011;4992;51.628;6.664;2022-11-15T10:02:33;1.75;;;1.40;;
9906;SDS011;4992;51.628;6.664;2022-11-15T10:05:23;4.18;;;1.55;;
9906;SDS011;4992;51.628;6.664;2022-11-15T10:07:53;1.70;;;1.33;;
9906;SDS011;4992;51.628;6.664;2022-11-15T10:13:00;3.17;;;1.33;;
9906;SDS011;4992;51.628;6.664;2022-11-15T10:15:25;2.78;;;1.77;;
9906;SDS011;4992;51.628;6.664;2022-11-15T10:17:56;5.38;;;1.77;;
9906;SDS011;4992;51.628;6.664;2022-11-15T10:20:32;2.85;;;1.60;;
9906;SDS011;4992;51.628;6.664;2022-11-15T10:23:06;3.15;;;1.83;;
9906;SDS011;4992;51.628;6.664;2022-11-15T10:25:35;5.18;;;1.60;;
9906;SDS011;4992;51.628;6.664;2022-11-15T10:28:03;2.63;;;1.50;;
9906;SDS011;4992;51.628;6.664;2022-11-15T10:30:43;3.85;;;1.50;;
9906;SDS011;4992;51.628;6.664;2022-11-15T10:33:19;1.20;;;0.95;;
9906;SDS011;4992;51.628;6.664;2022-11-15T10:44:11;4.32;;;2.42;;
9906;SDS011;4992;51.628;6.664;2022-11-15T10:47:06;2.60;;;2.35;;
9906;SDS011;4992;51.628;6.664;2022-11-15T10:49:53;4.20;;;1.85;;
9906;SDS011;4992;51.628;6.664;2022-11-15T10:52:21;3.03;;;2.38;;
9906;SDS011;4992;51.628;6.664;2022-11-15T10:54:50;6.28;;;2.10;;
9906;SDS011;4992;51.628;6.664;2022-11-15T10:57:25;3.83;;;1.92;;
9906;SDS011;4992;51.628;6.664;2022-11-15T10:59:55;2.53;;;1.35;;
9906;SDS011;4992;51.628;6.664;2022-11-15T11:02:28;1.70;;;1.30;;
9906;SDS011;4992;51.628;6.664;2022-11-15T11:04:59;3.92;;;1.48;;
9906;SDS011;4992;51.628;6.664;2022-11-15T11:07:29;2.60;;;1.52;;
9906;SDS011;4992;51.628;6.664;2022-11-15T11:09:57;3.03;;;1.65;;
9906;SDS011;4992;51.628;6.664;2022-11-15T11:12:29;1.75;;;1.60;;
9906;SDS011;4992;51.628;6.664;2022-11-15T11:14:57;3.72;;;1.80;;
9906;SDS011;4992;51.628;6.664;2022-11-15T11:17:45;3.17;;;1.88;;
9906;SDS011;4992;51.628;6.664;2022-11-15T11:23:06;4.45;;;1.70;;
9906;SDS011;4992;51.628;6.664;2022-11-15T11:34:02;3.65;;;1.38;;
9906;SDS011;4992;51.628;6.664;2022-11-15T11:36:39;1.60;;;1.30;;
9906;SDS011;4992;51.628;6.664;2022-11-15T11:42:07;3.63;;;1.10;;
9906;SDS011;4992;51.628;6.664;2022-11-15T11:44:58;3.83;;;1.20;;
9906;SDS011;4992;51.628;6.664;2022-11-15T11:47:41;2.60;;;2.05;;
9906;SDS011;4992;51.628;6.664;2022-11-15T11:50:14;2.83;;;2.20;;
9906;SDS011;4992;51.628;6.664;2022-11-15T11:55:23;5.95;;;1.65;;
9906;SDS011;4992;51.628;6.664;2022-11-15T12:00:56;3.80;;;1.70;;
9906;SDS011;4992;51.628;6.664;2022-11-15T12:06:04;2.33;;;1.20;;
9906;SDS011;4992;51.628;6.664;2022-11-15T12:08:48;1.70;;;1.27;;
9906;SDS011;4992;51.628;6.664;2022-11-15T12:11:29;3.55;;;1.60;;
9906;SDS011;4992;51.628;6.664;2022-11-15T12:13:56;2.17;;;1.10;;
9906;SDS011;4992;51.628;6.664;2022-11-15T12:16:31;3.22;;;1.00;;
9906;SDS011;4992;51.628;6.664;2022-11-15T12:19:01;2.47;;;1.05;;
9906;SDS011;4992;51.628;6.664;2022-11-15T12:21:45;3.75;;;0.90;;
9906;SDS011;4992;51.628;6.664;2022-11-15T12:24:27;2.03;;;0.82;;
9906;SDS011;4992;51.628;6.664;2022-11-15T12:27:19;1.58;;;0.85;;
9906;SDS011;4992;51.628;6.664;2022-11-15T12:30:08;1.23;;;0.65;;
9906;SDS011;4992;51.628;6.664;2022-11-15T12:32:39;1.33;;;0.80;;
9906;SDS011;4992;51.628;6.664;2022-11-15T12:38:09;1.83;;;0.65;;
9906;SDS011;4992;51.628;6.664;2022-11-15T12:40:39;4.53;;;0.80;;
9906;SDS011;4992;51.628;6.664;2022-11-15T12:43:39;1.98;;;1.08;;
9906;SDS011;4992;51.628;6.664;2022-11-15T12:49:01;1.95;;;0.85;;
9906;SDS011;4992;51.628;6.664;2022-11-15T13:05:25;1.38;;;0.70;;
9906;SDS011;4992;51.628;6.664;2022-11-15T13:17:44;1.40;;;0.93;;
9906;SDS011;4992;51.628;6.664;2022-11-15T13:22:40;2.50;;;0.80;;
9906;SDS011;4992;51.628;6.664;2022-11-15T13:28:00;4.40;;;2.72;;
9906;SDS011;4992;51.628;6.664;2022-11-15T13:30:29;3.25;;;1.70;;
9906;SDS011;4992;51.628;6.664;2022-11-15T13:33:07;4.55;;;1.00;;
9906;SDS011;4992;51.628;6.664;2022-11-15T13:35:38;3.40;;;0.60;;
9906;SDS011;4992;51.628;6.664;2022-11-15T13:38:05;4.50;;;0.82;;
9906;SDS011;4992;51.628;6.664;2022-11-15T13:40:34;2.92;;;0.70;;
9906;SDS011;4992;51.628;6.664;2022-11-15T13:43:22;2.03;;;0.90;;
9906;SDS011;4992;51.628;6.664;2022-11-15T13:46:10;3.63;;;0.88;;
9906;SDS011;4992;51.628;6.664;2022-11-15T13:48:42;1.52;;;0.57;;
9906;SDS011;4992;51.628;6.664;2022-11-15T13:51:20;2.50;;;0.77;;
9906;SDS011;4992;51.628;6.664;2022-11-15T13:53:54;4.38;;;0.80;;
9906;SDS011;4992;51.628;6.664;2022-11-15T13:56:26;3.30;;;0.93;;
9906;SDS011;4992;51.628;6.664;2022-11-15T13:58:53;3.15;;;0.80;;
9906;SDS011;4992;51.628;6.664;2022-11-15T14:01:20;1.88;;;0.60;;
9906;SDS011;4992;51.628;6.664;2022-11-15T14:03:54;5.35;;;0.82;;
9906;SDS011;4992;51.628;6.664;2022-11-15T14:06:23;2.20;;;0.80;;
9906;SDS011;4992;51.628;6.664;2022-11-15T14:09:03;2.45;;;0.77;;
9906;SDS011;4992;51.628;6.664;2022-11-15T14:11:32;2.10;;;0.65;;
9906;SDS011;4992;51.628;6.664;2022-11-15T14:16:33;1.70;;;0.63;;
9906;SDS011;4992;51.628;6.664;2022-11-15T14:19:33;5.35;;;0.88;;
9906;SDS011;4992;51.628;6.664;2022-11-15T14:22:16;3.33;;;0.63;;
9906;SDS011;4992;51.628;6.664;2022-11-15T14:24:47;3.30;;;0.80;;
9906;SDS011;4992;51.628;6.664;2022-11-15T14:27:30;3.45;;;0.63;;
9906;SDS011;4992;51.628;6.664;2022-11-15T14:29:56;2.20;;;0.40;;
9906;SDS011;4992;51.628;6.664;2022-11-15T14:32:23;1.25;;;0.65;;
9906;SDS011;4992;51.628;6.664;2022-11-15T14:34:57;2.35;;;0.82;;
9906;SDS011;4992;51.628;6.664;2022-11-15T14:37:29;3.65;;;1.08;;
9906;SDS011;4992;51.628;6.664;2022-11-15T14:39:59;3.67;;;2.05;;
9906;SDS011;4992;51.628;6.664;2022-11-15T14:42:26;4.38;;;2.75;;
9906;SDS011;4992;51.628;6.664;2022-11-15T14:44:52;3.67;;;0.90;;
9906;SDS011;4992;51.628;6.664;2022-11-15T14:47:18;2.33;;;0.55;;
9906;SDS011;4992;51.628;6.664;2022-11-15T14:49:44;2.65;;;0.68;;
9906;SDS011;4992;51.628;6.664;2022-11-15T14:54:55;2.47;;;0.60;;
9906;SDS011;4992;51.628;6.664;2022-11-15T14:57:21;2.35;;;0.98;;
9906;SDS011;4992;51.628;6.664;2022-11-15T14:59:47;3.72;;;0.82;;
9906;SDS011;4992;51.628;6.664;2022-11-15T15:02:20;2.95;;;0.80;;
9906;SDS011;4992;51.628;6.664;2022-11-15T15:04:48;3.35;;;0.73;;
9906;SDS011;4992;51.628;6.664;2022-11-15T15:09:43;5.97;;;0.75;;
9906;SDS011;4992;51.628;6.664;2022-11-15T15:12:16;1.35;;;0.57;;
9906;SDS011;4992;51.628;6.664;2022-11-15T15:14:44;5.03;;;0.90;;
9906;SDS011;4992;51.628;6.664;2022-11-15T15:17:11;1.13;;;0.52;;
9906;SDS011;4992;51.628;6.664;2022-11-15T15:19:36;2.08;;;0.95;;
9906;SDS011;4992;51.628;6.664;2022-11-15T15:22:02;3.22;;;0.70;;
9906;SDS011;4992;51.628;6.664;2022-11-15T15:24:27;1.40;;;0.80;;
9906;SDS011;4992;51.628;6.664;2022-11-15T15:26:53;2.47;;;0.73;;
9906;SDS011;4992;51.628;6.664;2022-11-15T15:29:18;5.40;;;0.98;;
9906;SDS011;4992;51.628;6.664;2022-11-15T15:31:44;2.80;;;0.90;;
9906;SDS011;4992;51.628;6.664;2022-11-15T15:34:09;3.55;;;1.00;;
9906;SDS011;4992;51.628;6.664;2022-11-15T15:36:35;0.80;;;0.80;;
9906;SDS011;4992;51.628;6.664;2022-11-15T15:39:00;2.85;;;1.30;;
9906;SDS011;4992;51.628;6.664;2022-11-15T15:41:26;1.58;;;1.02;;
9906;SDS011;4992;51.628;6.664;2022-11-15T15:43:51;3.42;;;1.10;;
9906;SDS011;4992;51.628;6.664;2022-11-15T15:46:18;4.35;;;1.30;;
9906;SDS011;4992;51.628;6.664;2022-11-15T15:48:44;1.58;;;1.10;;
9906;SDS011;4992;51.628;6.664;2022-11-15T15:51:10;4.88;;;1.10;;
9906;SDS011;4992;51.628;6.664;2022-11-15T15:53:36;3.22;;;1.33;;
9906;SDS011;4992;51.628;6.664;2022-11-15T15:56:02;1.75;;;0.98;;
9906;SDS011;4992;51.628;6.664;2022-11-15T15:58:28;2.95;;;1.25;;
9906;SDS011;4992;51.628;6.664;2022-11-15T16:00:53;2.70;;;1.00;;
9906;SDS011;4992;51.628;6.664;2022-11-15T16:03:19;1.50;;;1.10;;
9906;SDS011;4992;51.628;6.664;2022-11-15T16:05:44;2.83;;;1.25;;
9906;SDS011;4992;51.628;6.664;2022-11-15T16:08:20;2.58;;;1.20;;
9906;SDS011;4992;51.628;6.664;2022-11-15T16:10:47;3.17;;;1.13;;
9906;SDS011;4992;51.628;6.664;2022-11-15T16:13:13;2.58;;;1.50;;
9906;SDS011;4992;51.628;6.664;2022-11-15T16:15:39;2.47;;;1.50;;
9906;SDS011;4992;51.628;6.664;2022-11-15T16:18:08;1.90;;;1.70;;
9906;SDS011;4992;51.628;6.664;2022-11-15T16:20:40;4.88;;;1.55;;
9906;SDS011;4992;51.628;6.664;2022-11-15T16:23:10;4.22;;;1.55;;
9906;SDS011;4992;51.628;6.664;2022-11-15T16:25:52;2.35;;;1.50;;
9906;SDS011;4992;51.628;6.664;2022-11-15T16:28:23;3.72;;;1.77;;
9906;SDS011;4992;51.628;6.664;2022-11-15T16:30:59;2.00;;;1.27;;
9906;SDS011;4992;51.628;6.664;2022-11-15T16:33:29;2.72;;;1.50;;
9906;SDS011;4992;51.628;6.664;2022-11-15T16:35:55;3.30;;;1.33;;
9906;SDS011;4992;51.628;6.664;2022-11-15T16:38:21;9.07;;;1.63;;
9906;SDS011;4992;51.628;6.664;2022-11-15T16:40:46;2.55;;;1.63;;
9906;SDS011;4992;51.628;6.664;2022-11-15T16:43:12;3.45;;;1.58;;
9906;SDS011;4992;51.628;6.664;2022-11-15T16:45:38;2.58;;;1.63;;
9906;SDS011;4992;51.628;6.664;2022-11-15T16:48:03;1.65;;;1.30;;
9906;SDS011;4992;51.628;6.664;2022-11-15T16:50:31;5.60;;;2.70;;
9906;SDS011;4992;51.628;6.664;2022-11-15T16:53:03;2.20;;;1.48;;
9906;SDS011;4992;51.628;6.664;2022-11-15T16:55:29;3.38;;;1.50;;
9906;SDS011;4992;51.628;6.664;2022-11-15T16:57:55;1.35;;;1.25;;
9906;SDS011;4992;51.628;6.664;2022-11-15T17:00:25;2.20;;;1.30;;
9906;SDS011;4992;51.628;6.664;2022-11-15T17:02:51;2.33;;;1.65;;
9906;SDS011;4992;51.628;6.664;2022-11-15T17:05:18;6.50;;;1.52;;
9906;SDS011;4992;51.628;6.664;2022-11-15T17:07:46;2.75;;;1.50;;
9906;SDS011;4992;51.628;6.664;2022-11-15T17:10:18;2.53;;;1.23;;
9906;SDS011;4992;51.628;6.664;2022-11-15T17:12:44;2.97;;;1.20;;
9906;SDS011;4992;51.628;6.664;2022-11-15T17:15:11;4.50;;;1.23;;
9906;SDS011;4992;51.628;6.664;2022-11-15T17:17:37;1.75;;;1.30;;